CheckWX is a tool to help pilots better visualize weather data.  It is not intended as a substitute for an official pre-flight weather briefing.

06:41:54 UTC

KLSV METAR
Nellis AFB Airport
Las Vegas, Nevada, USA
Current

47 mins ago

KLSV 190555Z 19006KT 10SM CLR 26/M03 A2976 RMK AO2A SLP036 WND DATA ESTMD T02661027 10338 20264 52002 $
Observed
Sep-19 @ 05:55 UTC
Wind
  • 190° at 6 KTS
Visibility
10 SM
Flight Rules
VFR
Cloud Levels
  • Clear skies
Temperature
27°C / 81°F
Dewpoint
-3°C / 27°F
Humidity
14%
Altimeter
29.76" Hg
Pressure
1007.82 hPa
Previous

2 hours ago

KLSV 190455Z 20006KT 10SM CLR 28/M03 A2976 RMK AO2A SLP037 WND DATA ESTMD T02761027 $
Observed
Sep-19 @ 04:55 UTC
Wind
  • 200° at 6 KTS
Visibility
10 SM
Flight Rules
VFR
Cloud Levels
  • Clear skies
Temperature
28°C / 82°F
Dewpoint
-3°C / 27°F
Humidity
13%
Altimeter
29.76" Hg
Pressure
1007.82 hPa
Previous

3 hours ago

KLSV 190355Z 21009KT 10SM CLR 29/M03 A2976 RMK AO2A SLP037 WND DATA ESTMD T02861026 $
Observed
Sep-19 @ 03:55 UTC
Wind
  • 210° at 9 KTS
Visibility
10 SM
Flight Rules
VFR
Cloud Levels
  • Clear skies
Temperature
29°C / 84°F
Dewpoint
-3°C / 27°F
Humidity
12%
Altimeter
29.76" Hg
Pressure
1007.82 hPa